Time;durP1;ratioP1;P1;durP2;ratioP2;P2;SDS_P1;SDS_P2;PMS_P1;PMS_P2;Temp;Humidity;BMP_temperature;BMP_pressure;BME280_temperature;BME280_humidity;BME280_pressure;Samples;Min_cycle;Max_cycle;Signal;HPM_P1;HPM_P2
2021/10/15 00:01:53;;;;;;;;;;;;;;;14.10;nan;99054.84;5093870;28;19925;-79
2021/10/15 00:04:21;;;;;;;;;;;;;;;13.94;nan;99050.09;5093841;28;19924;-79
2021/10/15 00:06:48;;;;;;;;;;;;;;;14.03;nan;99049.44;5093587;28;19928;-78
2021/10/15 00:09:15;;;;;;;;;;;;;;;14.24;nan;99048.81;5072192;28;20382;-79
2021/10/15 00:11:45;;;;;;;;;;;;;;;14.13;nan;99053.97;5088027;28;19932;-78
2021/10/15 00:14:12;;;;;;;;;;;;;;;14.30;nan;99061.06;5075835;28;19928;-79
2021/10/15 00:16:40;;;;;;;;;;;;;;;14.15;nan;99051.47;5093655;28;19931;-79
2021/10/15 00:19:07;;;;;;;;;;;;;;;14.17;nan;99051.81;5071991;28;19936;-79
2021/10/15 00:21:35;;;;;;;;;;;;;;;14.32;nan;99047.38;5084861;28;19954;-79
2021/10/15 00:24:02;;;;;;;;;;;;;;;14.29;nan;99051.06;5071909;28;19928;-79
2021/10/15 00:26:30;;;;;;;;;;;;;;;14.18;nan;99050.56;5083060;28;19924;-79
2021/10/15 00:28:57;;;;;;;;;;;;;;;14.28;nan;99038.25;5093163;28;19928;-79
2021/10/15 00:31:24;;;;;;;;;;;;;;;14.51;nan;99040.72;5071972;28;20380;-79
2021/10/15 00:33:51;;;;;;;;;;;;;;;14.42;nan;99037.78;5087513;28;19924;-79
2021/10/15 00:36:18;;;;;;;;;;;;;;;14.54;nan;99033.44;5093059;28;19931;-79
2021/10/15 00:38:46;;;;;;;;;;;;;;;14.60;nan;99032.38;5093197;28;19993;-79
2021/10/15 00:41:13;;;;;;;;;;;;;;;14.52;nan;99039.50;5071533;28;19925;-79
2021/10/15 00:44:00;;;;;;;;;;;;;;;14.64;nan;99044.31;5062968;28;19931;-79
2021/10/15 00:46:27;;;;;;;;;;;;;;;14.41;nan;99058.72;5079117;28;20337;-79
2021/10/15 00:48:55;;;;;;;;;;;;;;;14.39;nan;99061.19;5093057;28;19924;-79
2021/10/15 00:51:23;;;;;;;;;;;;;;;14.39;nan;99069.63;5054389;28;19929;-79
2021/10/15 00:53:50;;;;;;;;;;;;;;;14.32;nan;99073.47;5083552;28;19924;-78
2021/10/15 00:56:18;;;;;;;;;;;;;;;14.11;nan;99074.06;5092697;28;19928;-78
2021/10/15 00:58:46;;;;;;;;;;;;;;;14.43;nan;99073.88;5071549;28;20040;-79
2021/10/15 01:01:13;;;;;;;;;;;;;;;14.49;nan;99071.31;5088410;28;19931;-79
2021/10/15 01:03:40;;;;;;;;;;;;;;;14.35;nan;99063.31;5092350;28;19924;-79
2021/10/15 01:06:08;;;;;;;;;;;;;;;14.45;nan;99065.00;5092495;28;19928;-79
2021/10/15 01:08:38;;;;;;;;;;;;;;;14.03;nan;99060.66;5074703;28;19923;-79
2021/10/15 01:11:06;;;;;;;;;;;;;;;14.36;nan;99070.50;5092744;28;19924;-79
2021/10/15 01:13:35;;;;;;;;;;;;;;;14.34;nan;99073.78;5092571;28;19924;-79
2021/10/15 01:16:03;;;;;;;;;;;;;;;14.37;nan;99074.91;5092587;28;19931;-79
2021/10/15 01:18:31;;;;;;;;;;;;;;;14.09;nan;99076.53;5092515;28;19927;-79
2021/10/15 01:21:00;;;;;;;;;;;;;;;14.28;nan;99072.75;5092437;28;20299;-79
2021/10/15 01:23:27;;;;;;;;;;;;;;;14.43;nan;99071.06;5092632;28;19924;-79
2021/10/15 01:25:54;;;;;;;;;;;;;;;14.82;nan;99072.66;5092177;28;19924;-78
2021/10/15 01:28:22;;;;;;;;;;;;;;;14.55;nan;99080.78;5074526;28;20302;-79
2021/10/15 01:30:50;;;;;;;;;;;;;;;14.65;nan;99079.63;5092217;28;19977;-79
2021/10/15 01:33:18;;;;;;;;;;;;;;;14.55;nan;99080.78;5071116;28;19930;-79
2021/10/15 01:35:45;;;;;;;;;;;;;;;14.89;nan;99085.72;5088098;28;19931;-79
2021/10/15 01:38:13;;;;;;;;;;;;;;;15.04;nan;99084.00;5092390;28;19934;-79
2021/10/15 01:40:43;;;;;;;;;;;;;;;14.52;nan;99090.09;5092192;28;19982;-79
2021/10/15 01:43:11;;;;;;;;;;;;;;;14.90;nan;99085.25;5092547;28;20310;-79
2021/10/15 01:45:38;;;;;;;;;;;;;;;14.88;nan;99081.31;5092355;28;19934;-79
2021/10/15 01:48:05;;;;;;;;;;;;;;;15.05;nan;99086.34;5092359;28;19950;-79
2021/10/15 01:50:32;;;;;;;;;;;;;;;15.15;nan;99085.19;5070516;28;19928;-78
2021/10/15 01:53:00;;;;;;;;;;;;;;;14.98;nan;99092.19;5090100;28;19931;-79
2021/10/15 01:55:27;;;;;;;;;;;;;;;15.16;nan;99120.53;5092286;28;19925;-79
2021/10/15 01:57:54;;;;;;;;;;;;;;;14.65;nan;99124.63;5074194;28;19924;-78
2021/10/15 02:00:21;;;;;;;;;;;;;;;14.36;nan;99121.09;5092215;28;19925;-78
2021/10/15 02:02:48;;;;;;;;;;;;;;;14.37;nan;99114.28;5092330;28;19928;-78
2021/10/15 02:05:17;;;;;;;;;;;;;;;14.02;nan;99116.09;5058248;28;19935;-78
2021/10/15 02:07:45;;;;;;;;;;;;;;;14.06;nan;99130.00;5073707;28;19925;-78
2021/10/15 02:10:14;;;;;;;;;;;;;;;14.19;nan;99142.84;5074666;28;19948;-78
2021/10/15 02:12:41;;;;;;;;;;;;;;;13.98;nan;99153.94;5088302;28;19938;-78
2021/10/15 02:15:09;;;;;;;;;;;;;;;13.71;nan;99145.03;5092478;28;19928;-78
2021/10/15 02:17:38;;;;;;;;;;;;;;;13.60;nan;99158.59;5086052;28;19936;-78
2021/10/15 02:20:07;;;;;;;;;;;;;;;13.45;nan;99154.59;5088622;28;19924;-79
2021/10/15 02:22:36;;;;;;;;;;;;;;;13.11;nan;99151.44;5095689;28;19928;-78
2021/10/15 02:25:05;;;;;;;;;;;;;;;12.99;nan;99152.91;5080401;28;19935;-78
2021/10/15 02:27:32;;;;;;;;;;;;;;;12.79;nan;99163.38;5095766;28;19925;-78
2021/10/15 02:30:00;;;;;;;;;;;;;;;12.77;nan;99148.25;5095391;28;19928;-78
2021/10/15 02:32:28;;;;;;;;;;;;;;;12.80;nan;99147.38;5095348;28;19982;-78
2021/10/15 02:34:55;;;;;;;;;;;;;;;12.71;nan;99162.75;5095450;28;19930;-78
2021/10/15 02:37:22;;;;;;;;;;;;;;;12.72;nan;99169.94;5087362;28;19924;-78
2021/10/15 02:39:49;;;;;;;;;;;;;;;12.59;nan;99171.84;5095395;28;19931;-78
2021/10/15 02:42:17;;;;;;;;;;;;;;;12.56;nan;99169.13;5095520;28;20406;-78
2021/10/15 02:44:44;;;;;;;;;;;;;;;12.64;nan;99162.94;5095273;28;20298;-78
2021/10/15 02:47:11;;;;;;;;;;;;;;;12.48;nan;99164.91;5095231;28;19924;-78
2021/10/15 02:49:38;;;;;;;;;;;;;;;12.39;nan;99170.28;5094892;28;19924;-78
2021/10/15 02:52:05;;;;;;;;;;;;;;;12.39;nan;99159.88;5094954;28;19924;-78
2021/10/15 02:54:33;;;;;;;;;;;;;;;12.32;nan;99168.44;5095058;28;20033;-78
2021/10/15 02:57:00;;;;;;;;;;;;;;;12.35;nan;99172.38;5084973;28;19931;-78
2021/10/15 02:59:30;;;;;;;;;;;;;;;12.53;nan;99179.19;5095028;28;20302;-78
2021/10/15 03:01:58;;;;;;;;;;;;;;;12.72;nan;99181.16;5056826;28;19924;-78
2021/10/15 03:04:25;;;;;;;;;;;;;;;12.65;nan;99183.34;5084892;28;19925;-78
2021/10/15 03:06:52;;;;;;;;;;;;;;;12.37;nan;99176.31;5094750;28;19950;-78
2021/10/15 03:09:19;;;;;;;;;;;;;;;12.39;nan;99184.31;5094909;28;19924;-78
2021/10/15 03:11:47;;;;;;;;;;;;;;;12.27;nan;99188.56;5083904;28;20018;-78
2021/10/15 03:14:14;;;;;;;;;;;;;;;12.15;nan;99192.00;5074322;28;20302;-78
2021/10/15 03:16:42;;;;;;;;;;;;;;;12.24;nan;99195.03;5072977;28;19931;-78
2021/10/15 03:19:09;;;;;;;;;;;;;;;12.25;nan;99185.38;5084717;28;20567;-78
2021/10/15 03:21:36;;;;;;;;;;;;;;;12.31;nan;99194.09;5094809;28;19930;-78
2021/10/15 03:24:04;;;;;;;;;;;;;;;12.43;nan;99202.63;5074573;28;19935;-78
2021/10/15 03:26:32;;;;;;;;;;;;;;;12.09;nan;99210.53;5094624;28;19931;-78
2021/10/15 03:28:59;;;;;;;;;;;;;;;12.28;nan;99201.34;5094528;28;19928;-78
2021/10/15 03:31:26;;;;;;;;;;;;;;;12.35;nan;99214.41;5094311;28;19928;-78
2021/10/15 03:33:53;;;;;;;;;;;;;;;12.08;nan;99213.78;5094310;28;20338;-78
2021/10/15 03:36:20;;;;;;;;;;;;;;;12.08;nan;99228.56;5094206;28;19924;-78
2021/10/15 03:38:47;;;;;;;;;;;;;;;12.31;nan;99222.88;5094447;28;20409;-78
2021/10/15 03:41:15;;;;;;;;;;;;;;;12.20;nan;99216.72;5075562;28;20385;-78
2021/10/15 03:43:42;;;;;;;;;;;;;;;11.77;nan;99217.97;5094445;28;19930;-78
2021/10/15 03:46:09;;;;;;;;;;;;;;;12.09;nan;99221.75;5094331;28;19935;-78
2021/10/15 03:48:36;;;;;;;;;;;;;;;12.08;nan;99227.78;5094139;28;19969;-78
2021/10/15 03:51:03;;;;;;;;;;;;;;;12.20;nan;99227.13;5093851;28;20378;-78
2021/10/15 03:53:31;;;;;;;;;;;;;;;12.00;nan;99215.91;5094186;28;19931;-78
2021/10/15 03:55:58;;;;;;;;;;;;;;;11.95;nan;99227.59;5094063;28;19925;-78
2021/10/15 03:58:25;;;;;;;;;;;;;;;11.67;nan;99216.94;5093940;28;20303;-78
2021/10/15 04:00:52;;;;;;;;;;;;;;;11.89;nan;99223.72;5093806;28;19924;-78
2021/10/15 04:03:20;;;;;;;;;;;;;;;11.08;nan;99223.50;5074321;28;19928;-78
2021/10/15 04:05:48;;;;;;;;;;;;;;;11.33;nan;99223.91;5075635;28;19954;-78
2021/10/15 04:08:15;;;;;;;;;;;;;;;11.70;nan;99220.88;5093606;28;19946;-78
2021/10/15 04:10:43;;;;;;;;;;;;;;;11.84;nan;99232.63;5075728;28;19930;-78
2021/10/15 04:13:10;;;;;;;;;;;;;;;11.64;nan;99240.19;5093782;28;19930;-78
2021/10/15 04:15:38;;;;;;;;;;;;;;;11.22;nan;99238.06;5075361;28;19924;-78
2021/10/15 04:18:06;;;;;;;;;;;;;;;11.55;nan;99242.72;5081951;28;19925;-78
2021/10/15 04:20:35;;;;;;;;;;;;;;;11.82;nan;99240.66;5091528;28;19930;-78
2021/10/15 04:23:03;;;;;;;;;;;;;;;11.20;nan;99248.88;5094008;28;20381;-78
2021/10/15 04:25:30;;;;;;;;;;;;;;;11.88;nan;99255.75;5075323;28;20294;-78
2021/10/15 04:27:58;;;;;;;;;;;;;;;11.58;nan;99263.44;5093472;28;19931;-78
2021/10/15 04:30:25;;;;;;;;;;;;;;;11.45;nan;99266.06;5071710;28;19924;-78
2021/10/15 04:32:52;;;;;;;;;;;;;;;11.47;nan;99262.81;5079354;28;19930;-78
2021/10/15 04:35:19;;;;;;;;;;;;;;;11.75;nan;99262.41;5093343;28;19996;-78
2021/10/15 04:37:46;;;;;;;;;;;;;;;11.84;nan;99263.44;5092682;28;19924;-78
2021/10/15 04:40:13;;;;;;;;;;;;;;;11.94;nan;99264.44;5093223;28;19932;-78
2021/10/15 04:42:41;;;;;;;;;;;;;;;12.12;nan;99273.31;5092808;28;19924;-78
2021/10/15 04:45:08;;;;;;;;;;;;;;;11.87;nan;99276.56;5071712;28;20337;-78
2021/10/15 04:47:35;;;;;;;;;;;;;;;11.67;nan;99266.53;5088313;28;19930;-78
2021/10/15 04:50:03;;;;;;;;;;;;;;;11.64;nan;99279.38;5092892;28;20295;-78
2021/10/15 04:52:31;;;;;;;;;;;;;;;11.73;nan;99276.81;5071680;28;20368;-78
2021/10/15 04:54:58;;;;;;;;;;;;;;;11.74;nan;99284.00;5078836;28;19978;-78
2021/10/15 04:57:25;;;;;;;;;;;;;;;11.64;nan;99284.16;5071378;28;19993;-78
2021/10/15 04:59:52;;;;;;;;;;;;;;;11.68;nan;99280.09;5091433;28;19924;-78
2021/10/15 05:02:20;;;;;;;;;;;;;;;11.69;nan;99286.50;5092761;28;19934;-78
2021/10/15 05:04:47;;;;;;;;;;;;;;;11.45;nan;99279.28;5074691;28;20387;-78
2021/10/15 05:07:14;;;;;;;;;;;;;;;11.02;nan;99292.28;5092961;28;19969;-79
2021/10/15 05:09:43;;;;;;;;;;;;;;;11.09;nan;99297.81;5074918;28;20290;-79
2021/10/15 05:12:14;;;;;;;;;;;;;;;11.05;nan;99300.66;5092417;28;19928;-78
2021/10/15 05:14:42;;;;;;;;;;;;;;;11.11;nan;99298.16;5092726;28;19924;-79
2021/10/15 05:17:09;;;;;;;;;;;;;;;11.04;nan;99309.47;5074668;28;19978;-78
2021/10/15 05:19:37;;;;;;;;;;;;;;;10.81;nan;99315.75;5071284;28;19925;-79
2021/10/15 05:22:04;;;;;;;;;;;;;;;9.80;nan;99321.19;5067807;28;19936;-78
2021/10/15 05:24:31;;;;;;;;;;;;;;;9.91;nan;99329.47;5092823;28;19928;-78
2021/10/15 05:26:59;;;;;;;;;;;;;;;10.14;nan;99327.72;5071014;28;19981;-78
2021/10/15 05:29:26;;;;;;;;;;;;;;;10.23;nan;99318.81;5092544;28;19930;-78
2021/10/15 05:31:54;;;;;;;;;;;;;;;9.69;nan;99334.47;5074482;28;19924;-79
2021/10/15 05:34:21;;;;;;;;;;;;;;;10.15;nan;99334.88;5070979;28;19925;-79
2021/10/15 05:36:48;;;;;;;;;;;;;;;10.10;nan;99331.75;5083129;28;19924;-78
2021/10/15 05:39:16;;;;;;;;;;;;;;;9.62;nan;99342.09;5092346;28;19932;-78
2021/10/15 05:41:43;;;;;;;;;;;;;;;9.51;nan;99341.38;5071101;28;19929;-78
2021/10/15 05:44:10;;;;;;;;;;;;;;;9.61;nan;99349.69;5087606;28;19927;-78
2021/10/15 05:46:38;;;;;;;;;;;;;;;9.86;nan;99355.06;5071238;28;19924;-79
2021/10/15 05:49:08;;;;;;;;;;;;;;;9.93;nan;99350.22;5084736;28;19928;-79
2021/10/15 05:51:39;;;;;;;;;;;;;;;10.02;nan;99346.94;5095506;28;19931;-79
2021/10/15 05:54:09;;;;;;;;;;;;;;;9.86;nan;99343.91;5096477;28;20311;-78
2021/10/15 05:59:06;;;;;;;;;;;;;;;8.67;nan;99354.59;5096523;28;19931;-78
2021/10/15 06:01:34;;;;;;;;;;;;;;;9.13;nan;99362.75;5096193;28;20205;-78
2021/10/15 06:14:22;;;;;;;;;;;;;;;9.38;nan;99365.38;5090874;28;20290;-78
2021/10/15 06:17:11;;;;;;;;;;;;;;;9.58;nan;99366.44;5091524;28;19928;-78
2021/10/15 06:19:44;;;;;;;;;;;;;;;9.69;nan;99367.16;5094249;28;19931;-78
2021/10/15 06:22:12;;;;;;;;;;;;;;;9.39;nan;99366.97;5093145;28;19976;-78
2021/10/15 06:24:40;;;;;;;;;;;;;;;9.57;nan;99376.00;5069898;28;19930;-78
2021/10/15 06:27:07;;;;;;;;;;;;;;;9.57;nan;99376.00;5059237;28;19924;-78
2021/10/15 06:29:34;;;;;;;;;;;;;;;9.61;nan;99387.94;5092962;28;19931;-79
2021/10/15 06:32:02;;;;;;;;;;;;;;;9.24;nan;99385.78;5075823;28;19931;-78
2021/10/15 06:34:29;;;;;;;;;;;;;;;9.33;nan;99393.72;5093249;28;19927;-78
2021/10/15 06:36:56;;;;;;;;;;;;;;;9.47;nan;99399.19;5095162;28;19935;-78
2021/10/15 06:39:23;;;;;;;;;;;;;;;9.19;nan;99400.94;5076661;28;19928;-78
2021/10/15 06:41:51;;;;;;;;;;;;;;;9.24;nan;99407.31;5094990;28;19928;-78
2021/10/15 06:44:18;;;;;;;;;;;;;;;8.95;nan;99407.41;5095166;28;19924;-78
2021/10/15 06:46:45;;;;;;;;;;;;;;;9.11;nan;99416.13;5094871;28;19924;-78
2021/10/15 06:49:13;;;;;;;;;;;;;;;9.23;nan;99414.06;5079271;28;19924;-78
2021/10/15 06:51:40;;;;;;;;;;;;;;;9.42;nan;99419.16;5059763;28;19963;-78
2021/10/15 06:54:07;;;;;;;;;;;;;;;9.52;nan;99429.44;5057988;28;19935;-78
2021/10/15 06:56:35;;;;;;;;;;;;;;;9.53;nan;99436.59;5076792;28;19924;-78
2021/10/15 06:59:03;;;;;;;;;;;;;;;9.41;nan;99434.28;5091461;28;19924;-78
2021/10/15 07:01:31;;;;;;;;;;;;;;;9.68;nan;99433.31;5096644;28;19928;-78
2021/10/15 07:03:58;;;;;;;;;;;;;;;9.72;nan;99438.88;5076869;28;20302;-77
2021/10/15 07:06:25;;;;;;;;;;;;;;;9.23;nan;99439.16;5072614;28;19925;-79
2021/10/15 07:08:52;;;;;;;;;;;;;;;9.65;nan;99450.88;5094592;28;19928;-79
2021/10/15 07:11:19;;;;;;;;;;;;;;;9.64;nan;99454.88;5072077;28;19935;-79
2021/10/15 07:13:47;;;;;;;;;;;;;;;9.67;nan;99462.44;5094714;28;19928;-78
2021/10/15 07:16:14;;;;;;;;;;;;;;;9.55;nan;99456.53;5094866;28;19924;-78
2021/10/15 07:18:42;;;;;;;;;;;;;;;8.96;nan;99459.19;5094521;28;19950;-78
2021/10/15 07:21:09;;;;;;;;;;;;;;;9.01;nan;99464.31;5076915;28;20078;-78
2021/10/15 07:23:40;;;;;;;;;;;;;;;9.40;nan;99466.16;5087854;28;19928;-79
2021/10/15 07:26:10;;;;;;;;;;;;;;;8.46;nan;99485.56;5075597;28;19924;-77
2021/10/15 07:28:37;;;;;;;;;;;;;;;8.65;nan;99471.19;5073485;28;20260;-77
2021/10/15 07:31:04;;;;;;;;;;;;;;;8.30;nan;99470.47;5094075;28;19928;-76
2021/10/15 07:33:31;;;;;;;;;;;;;;;9.03;nan;99475.88;5086601;28;19932;-77
2021/10/15 07:35:59;;;;;;;;;;;;;;;9.16;nan;99481.81;5059376;28;19924;-76
2021/10/15 07:38:26;;;;;;;;;;;;;;;9.47;nan;99488.44;5091187;28;20287;-76
2021/10/15 07:40:53;;;;;;;;;;;;;;;9.85;nan;99488.22;5094493;28;19928;-77
2021/10/15 07:43:20;;;;;;;;;;;;;;;9.57;nan;99484.81;5069072;28;20307;-76
2021/10/15 07:45:48;;;;;;;;;;;;;;;9.99;nan;99498.50;5072818;28;20302;-76
2021/10/15 07:48:15;;;;;;;;;;;;;;;9.55;nan;99501.16;5076368;28;19947;-76
2021/10/15 07:50:43;;;;;;;;;;;;;;;9.93;nan;99506.53;5078125;28;19925;-76
2021/10/15 07:53:10;;;;;;;;;;;;;;;10.22;nan;99512.72;5081848;28;20309;-77
2021/10/15 07:55:37;;;;;;;;;;;;;;;11.07;nan;99507.16;5077711;28;20415;-77
2021/10/15 07:58:04;;;;;;;;;;;;;;;11.77;nan;99504.28;5078052;28;19955;-77
2021/10/15 08:00:32;;;;;;;;;;;;;;;13.28;nan;99498.97;5062444;28;20294;-77
2021/10/15 08:02:59;;;;;;;;;;;;;;;12.62;nan;99495.34;5076687;28;20260;-78
2021/10/15 08:05:26;;;;;;;;;;;;;;;13.21;nan;99498.31;5093071;28;19950;-78
2021/10/15 08:07:53;;;;;;;;;;;;;;;14.17;nan;99507.06;5069714;28;20193;-77
2021/10/15 08:10:21;;;;;;;;;;;;;;;15.82;nan;99500.63;5073575;28;19954;-78
2021/10/15 08:12:49;;;;;;;;;;;;;;;13.46;nan;99502.22;5087026;28;19928;-78
2021/10/15 08:15:19;;;;;;;;;;;;;;;14.45;nan;99503.56;5088745;28;20227;-78
2021/10/15 08:17:46;;;;;;;;;;;;;;;14.80;nan;99507.53;5088367;28;20309;-78
2021/10/15 08:20:14;;;;;;;;;;;;;;;15.43;nan;99501.00;5087809;28;20302;-78
2021/10/15 08:22:43;;;;;;;;;;;;;;;15.53;nan;99511.16;5089508;28;19930;-78
2021/10/15 08:25:21;;;;;;;;;;;;;;;14.66;nan;99510.72;5082935;28;19931;-78
2021/10/15 08:27:48;;;;;;;;;;;;;;;14.19;nan;99518.66;5087472;28;20372;-78
2021/10/15 08:30:16;;;;;;;;;;;;;;;14.49;nan;99521.16;5067712;28;20380;-78
2021/10/15 08:32:43;;;;;;;;;;;;;;;13.38;nan;99520.41;5083640;28;19924;-77
2021/10/15 08:35:11;;;;;;;;;;;;;;;14.65;nan;99529.59;5086372;28;19932;-78
2021/10/15 08:37:38;;;;;;;;;;;;;;;14.30;nan;99520.00;5087618;28;20294;-78
2021/10/15 08:40:07;;;;;;;;;;;;;;;15.23;nan;99525.66;5087797;28;19928;-78
2021/10/15 08:42:35;;;;;;;;;;;;;;;13.97;nan;99523.16;5087631;28;19947;-78
2021/10/15 08:45:03;;;;;;;;;;;;;;;13.76;nan;99529.25;5087647;28;19968;-78
2021/10/15 08:47:30;;;;;;;;;;;;;;;13.76;nan;99529.25;5080230;28;20390;-77
2021/10/15 08:50:17;;;;;;;;;;;;;;;13.39;nan;99532.44;5083486;28;19925;-78
2021/10/15 08:52:45;;;;;;;;;;;;;;;12.77;nan;99549.19;5053801;28;19928;-78
2021/10/15 08:55:12;;;;;;;;;;;;;;;13.69;nan;99540.63;5069642;28;19930;-77
2021/10/15 08:57:45;;;;;;;;;;;;;;;13.30;nan;99540.63;5087645;28;19981;-79
2021/10/15 09:00:25;;;;;;;;;;;;;;;12.50;nan;99544.41;5087061;28;19936;-79
2021/10/15 09:03:11;;;;;;;;;;;;;;;11.89;nan;99554.13;5082232;28;19930;-78
2021/10/15 09:05:39;;;;;;;;;;;;;;;12.44;nan;99548.13;5077018;28;19946;-79
2021/10/15 09:08:07;;;;;;;;;;;;;;;12.83;nan;99556.69;5087840;28;19934;-79
2021/10/15 09:10:34;;;;;;;;;;;;;;;12.83;nan;99564.31;5087199;28;20216;-79
2021/10/15 09:13:09;;;;;;;;;;;;;;;12.83;nan;99558.72;5086876;28;19943;-79
2021/10/15 09:15:37;;;;;;;;;;;;;;;12.93;nan;99564.13;5087164;28;19924;-79
2021/10/15 09:18:10;;;;;;;;;;;;;;;12.63;nan;99570.63;5087844;28;19935;-79
2021/10/15 09:20:38;;;;;;;;;;;;;;;12.64;nan;99571.44;5087873;28;20211;-79
2021/10/15 09:23:08;;;;;;;;;;;;;;;11.94;nan;99570.47;5049763;28;19970;-79
2021/10/15 09:25:36;;;;;;;;;;;;;;;12.43;nan;99569.72;5087129;28;19924;-79
2021/10/15 09:28:16;;;;;;;;;;;;;;;12.71;nan;99576.91;5087705;28;19928;-79
2021/10/15 09:30:43;;;;;;;;;;;;;;;12.28;nan;99573.97;5081244;28;19930;-79
2021/10/15 09:33:11;;;;;;;;;;;;;;;11.75;nan;99582.34;5087009;28;19928;-80
2021/10/15 09:35:38;;;;;;;;;;;;;;;12.40;nan;99584.59;5087063;28;19924;-79
2021/10/15 09:38:06;;;;;;;;;;;;;;;12.95;nan;99580.53;5087855;28;20298;-79
2021/10/15 09:40:48;;;;;;;;;;;;;;;13.43;nan;99578.06;5086834;28;19967;-79
2021/10/15 09:43:15;;;;;;;;;;;;;;;13.92;nan;99577.03;5062240;28;20251;-79
2021/10/15 09:45:45;;;;;;;;;;;;;;;13.51;nan;99579.50;5085853;28;19973;-78
2021/10/15 09:48:24;;;;;;;;;;;;;;;13.67;nan;99579.59;5057495;28;19928;-78
2021/10/15 09:51:15;;;;;;;;;;;;;;;13.12;nan;99582.25;5063818;28;19932;-79
2021/10/15 09:54:01;;;;;;;;;;;;;;;13.15;nan;99595.41;5061706;28;19932;-81
2021/10/15 09:56:38;;;;;;;;;;;;;;;12.81;nan;99592.78;5086967;28;19924;-80
2021/10/15 09:59:06;;;;;;;;;;;;;;;13.71;nan;99594.34;5088021;28;19977;-80
2021/10/15 10:01:36;;;;;;;;;;;;;;;14.30;nan;99589.47;5087240;28;19924;-78
2021/10/15 10:04:08;;;;;;;;;;;;;;;13.86;nan;99587.19;5084754;28;19924;-79
2021/10/15 10:06:36;;;;;;;;;;;;;;;13.70;nan;99598.38;5087550;28;19928;-78
2021/10/15 10:09:04;;;;;;;;;;;;;;;14.04;nan;99593.25;5087167;28;19944;-78
2021/10/15 10:11:31;;;;;;;;;;;;;;;14.66;nan;99587.41;5086489;28;19928;-78
2021/10/15 10:14:08;;;;;;;;;;;;;;;14.62;nan;99575.47;5069848;28;19981;-78
2021/10/15 10:16:37;;;;;;;;;;;;;;;14.30;nan;99586.66;5085028;28;19936;-79
2021/10/15 10:19:05;;;;;;;;;;;;;;;13.77;nan;99598.22;5087750;28;19973;-78
2021/10/15 10:21:35;;;;;;;;;;;;;;;14.06;nan;99585.16;5087642;28;19935;-78
2021/10/15 10:24:27;;;;;;;;;;;;;;;14.13;nan;99588.63;5085436;28;19924;-77
2021/10/15 10:26:55;;;;;;;;;;;;;;;14.38;nan;99599.34;5069756;28;19935;-78
2021/10/15 10:29:23;;;;;;;;;;;;;;;14.43;nan;99601.66;5061762;28;19924;-78
2021/10/15 10:31:54;;;;;;;;;;;;;;;14.20;nan;99598.91;5086963;28;19924;-79
2021/10/15 10:34:26;;;;;;;;;;;;;;;13.96;nan;99603.06;5087674;28;19928;-78
2021/10/15 10:37:06;;;;;;;;;;;;;;;13.87;nan;99603.63;5083721;28;20484;-78
2021/10/15 10:39:44;;;;;;;;;;;;;;;14.02;nan;99612.56;5075744;28;20306;-79
2021/10/15 10:42:13;;;;;;;;;;;;;;;14.01;nan;99611.00;5090265;28;19928;-79
2021/10/15 10:45:00;;;;;;;;;;;;;;;13.94;nan;99597.88;5089668;28;20295;-79
2021/10/15 10:47:28;;;;;;;;;;;;;;;13.36;nan;99617.50;5090089;28;19939;-79
2021/10/15 10:50:02;;;;;;;;;;;;;;;13.68;nan;99618.47;5077641;28;19981;-79
2021/10/15 10:52:36;;;;;;;;;;;;;;;13.55;nan;99619.53;5089772;28;19930;-79
2021/10/15 10:55:04;;;;;;;;;;;;;;;13.67;nan;99613.28;5088246;28;19928;-78
2021/10/15 10:57:38;;;;;;;;;;;;;;;14.00;nan;99612.19;5089797;28;19952;-78
2021/10/15 11:00:16;;;;;;;;;;;;;;;14.07;nan;99612.06;5089598;28;19938;-78
2021/10/15 11:02:44;;;;;;;;;;;;;;;14.12;nan;99614.34;5091289;28;19930;-78
2021/10/15 11:05:11;;;;;;;;;;;;;;;14.28;nan;99611.63;5094620;28;19985;-78
2021/10/15 11:07:39;;;;;;;;;;;;;;;14.32;nan;99613.13;5094931;28;19927;-78
2021/10/15 11:10:22;;;;;;;;;;;;;;;14.38;nan;99611.38;5095143;28;19925;-78
2021/10/15 11:12:49;;;;;;;;;;;;;;;14.65;nan;99602.72;5094821;28;20363;-78
2021/10/15 11:15:16;;;;;;;;;;;;;;;14.67;nan;99605.09;5094460;28;19930;-78
2021/10/15 11:17:48;;;;;;;;;;;;;;;14.71;nan;99605.81;5095196;28;19993;-78
2021/10/15 11:20:20;;;;;;;;;;;;;;;14.83;nan;99608.69;5094474;28;19930;-78
2021/10/15 11:22:50;;;;;;;;;;;;;;;14.83;nan;99603.06;5056743;28;19924;-78
2021/10/15 11:25:18;;;;;;;;;;;;;;;15.08;nan;99602.47;5088634;28;19924;-78
2021/10/15 11:27:50;;;;;;;;;;;;;;;14.37;nan;99614.63;5076847;28;19924;-78
2021/10/15 11:30:18;;;;;;;;;;;;;;;14.28;nan;99622.88;5094493;28;19992;-78
2021/10/15 11:32:46;;;;;;;;;;;;;;;13.46;nan;99616.50;5094250;28;19931;-78
2021/10/15 11:35:23;;;;;;;;;;;;;;;13.85;nan;99625.75;5094545;28;19969;-78
2021/10/15 11:37:52;;;;;;;;;;;;;;;13.89;nan;99623.66;5093962;28;19924;-78
2021/10/15 11:40:25;;;;;;;;;;;;;;;13.42;nan;99624.22;5062555;28;19936;-77
2021/10/15 11:43:05;;;;;;;;;;;;;;;13.97;nan;99618.69;5053954;28;19935;-77
2021/10/15 11:45:34;;;;;;;;;;;;;;;14.25;nan;99618.88;5089431;28;19932;-77
2021/10/15 11:48:03;;;;;;;;;;;;;;;14.19;nan;99614.22;5089191;28;20141;-78
2021/10/15 11:50:45;;;;;;;;;;;;;;;14.55;nan;99611.41;5088924;28;19924;-77
2021/10/15 11:53:16;;;;;;;;;;;;;;;13.58;nan;99613.06;5086666;28;21078;-77
2021/10/15 11:55:44;;;;;;;;;;;;;;;14.33;nan;99619.53;5088156;28;19924;-76
2021/10/15 11:58:25;;;;;;;;;;;;;;;15.03;nan;99605.78;5089102;28;20294;-77
2021/10/15 12:00:57;;;;;;;;;;;;;;;14.60;nan;99606.03;5088963;28;19928;-77
2021/10/15 12:03:25;;;;;;;;;;;;;;;14.98;nan;99604.31;5088993;28;20375;-77
2021/10/15 12:05:53;;;;;;;;;;;;;;;15.15;nan;99602.28;5088546;28;19932;-76
2021/10/15 12:08:21;;;;;;;;;;;;;;;15.42;nan;99606.41;5088213;28;19924;-77
2021/10/15 12:10:48;;;;;;;;;;;;;;;14.42;nan;99608.47;5089261;28;19924;-77
2021/10/15 12:13:16;;;;;;;;;;;;;;;14.78;nan;99603.63;5088517;28;20379;-77
2021/10/15 12:15:43;;;;;;;;;;;;;;;14.74;nan;99608.53;5088424;28;20272;-77
2021/10/15 12:18:11;;;;;;;;;;;;;;;15.04;nan;99602.53;5076002;28;19924;-77
2021/10/15 12:20:38;;;;;;;;;;;;;;;14.93;nan;99601.25;5088683;28;20303;-76
2021/10/15 12:23:06;;;;;;;;;;;;;;;14.74;nan;99611.34;5067180;28;20376;-77
2021/10/15 12:25:38;;;;;;;;;;;;;;;14.42;nan;99605.66;5085220;28;19931;-78
2021/10/15 12:28:14;;;;;;;;;;;;;;;14.18;nan;99606.97;5089077;28;20328;-78
2021/10/15 12:30:43;;;;;;;;;;;;;;;14.77;nan;99613.28;5070917;28;20427;-78
2021/10/15 12:33:16;;;;;;;;;;;;;;;15.21;nan;99600.50;5090739;28;20309;-78
2021/10/15 12:35:44;;;;;;;;;;;;;;;15.62;nan;99586.53;5092889;28;20508;-78
2021/10/15 12:38:22;;;;;;;;;;;;;;;15.86;nan;99599.94;5093198;28;19928;-78
2021/10/15 12:40:49;;;;;;;;;;;;;;;16.02;nan;99596.25;5093627;28;20378;-78
2021/10/15 12:43:18;;;;;;;;;;;;;;;16.36;nan;99587.19;5075206;28;20363;-77
2021/10/15 12:45:45;;;;;;;;;;;;;;;16.65;nan;99576.59;5093360;28;20295;-77
2021/10/15 12:48:20;;;;;;;;;;;;;;;16.56;nan;99590.59;5093427;28;19924;-80
2021/10/15 12:50:58;;;;;;;;;;;;;;;16.88;nan;99587.53;5069899;28;19974;-79
2021/10/15 12:53:26;;;;;;;;;;;;;;;17.10;nan;99582.75;5071269;28;20299;-79
2021/10/15 12:55:55;;;;;;;;;;;;;;;17.31;nan;99573.56;5072661;28;19928;-79
2021/10/15 12:58:24;;;;;;;;;;;;;;;17.18;nan;99567.13;5070674;28;19932;-79
2021/10/15 13:00:55;;;;;;;;;;;;;;;16.03;nan;99584.53;5081158;28;19924;-80
2021/10/15 13:03:23;;;;;;;;;;;;;;;16.89;nan;99580.66;5073452;28;19931;-80
2021/10/15 13:05:54;;;;;;;;;;;;;;;16.56;nan;99579.31;5072799;28;20410;-79
2021/10/15 13:08:22;;;;;;;;;;;;;;;16.70;nan;99574.00;5071512;28;19928;-80
2021/10/15 13:10:49;;;;;;;;;;;;;;;16.83;nan;99576.81;5069376;28;20364;-79
2021/10/15 13:13:18;;;;;;;;;;;;;;;16.06;nan;99583.66;5059232;28;20283;-79
2021/10/15 13:15:45;;;;;;;;;;;;;;;16.16;nan;99576.13;5072178;28;19924;-79
2021/10/15 13:18:13;;;;;;;;;;;;;;;16.23;nan;99582.31;5073731;28;19928;-79
2021/10/15 13:20:40;;;;;;;;;;;;;;;13.84;nan;99575.63;5074084;28;19931;-79
2021/10/15 13:23:08;;;;;;;;;;;;;;;13.98;nan;99583.75;5072746;28;19924;-79
2021/10/15 13:25:35;;;;;;;;;;;;;;;14.04;nan;99585.59;5067169;28;19924;-79
2021/10/15 13:28:02;;;;;;;;;;;;;;;14.42;nan;99589.59;5067775;28;20396;-79
2021/10/15 13:30:30;;;;;;;;;;;;;;;14.35;nan;99588.97;5078210;28;19928;-79
2021/10/15 13:32:58;;;;;;;;;;;;;;;13.80;nan;99586.13;5075998;28;19924;-79